SEGAN ESKV-ESOE
Flight info
| Callsign | SEGAN |
|---|---|
| Flight time | 0h 45m |
| Altitude | 7500 |
| Route | DCT 5921N01430E 5918N01455E |
| Aircraft | P28A/L-Y/S |
Departure
| Time | 2026-05-07 16:57 |
|---|---|
| Airport | Arvika Airfield (ESKV) |
Arrival
| Time | 2026-05-07 17:43 |
|---|---|
| Airport | Örebro Airport (ESOE) |
| Time | Latitude | Longitude | Altitude | Speed | Heading |
|---|---|---|---|---|---|
| 2026-05-07 16:46 | 59.67341 | 12.63604 | 223 ft | 0 kts | 6° |
| 2026-05-07 16:50 | 59.67341 | 12.63605 | 221 ft | 0 kts | 6° |
| 2026-05-07 16:50 | 59.67347 | 12.63608 | 226 ft | 3 kts | 32° |
| 2026-05-07 16:50 | 59.67355 | 12.63688 | 222 ft | 10 kts | 92° |
| 2026-05-07 16:51 | 59.67353 | 12.63763 | 222 ft | 0 kts | 94° |
| 2026-05-07 16:54 | 59.67352 | 12.63792 | 223 ft | 7 kts | 95° |
| 2026-05-07 16:54 | 59.67341 | 12.63899 | 222 ft | 9 kts | 153° |
| 2026-05-07 16:54 | 59.67272 | 12.63895 | 221 ft | 12 kts | 181° |
| 2026-05-07 16:55 | 59.67169 | 12.63876 | 224 ft | 15 kts | 188° |
| 2026-05-07 16:55 | 59.67085 | 12.63855 | 227 ft | 6 kts | 186° |
| 2026-05-07 16:55 | 59.67083 | 12.63874 | 227 ft | 0 kts | 360° |
| 2026-05-07 16:56 | 59.67098 | 12.63874 | 227 ft | 15 kts | 1° |
| 2026-05-07 16:56 | 59.67398 | 12.63913 | 224 ft | 66 kts | 3° |
| 2026-05-07 16:56 | 59.68454 | 12.64121 | 526 ft | 76 kts | 6° |
| 2026-05-07 16:57 | 59.68975 | 12.64190 | 763 ft | 77 kts | 1° |
| 2026-05-07 16:57 | 59.69470 | 12.64473 | 1001 ft | 76 kts | 46° |
| 2026-05-07 16:57 | 59.69499 | 12.65508 | 1180 ft | 84 kts | 114° |
| 2026-05-07 16:57 | 59.69239 | 12.66529 | 1427 ft | 84 kts | 111° |
| 2026-05-07 16:58 | 59.69015 | 12.67567 | 1672 ft | 83 kts | 115° |
| 2026-05-07 16:58 | 59.68750 | 12.68577 | 1913 ft | 82 kts | 114° |
| 2026-05-07 16:58 | 59.68517 | 12.69617 | 2133 ft | 83 kts | 115° |
| 2026-05-07 16:58 | 59.68225 | 12.70606 | 2365 ft | 83 kts | 119° |
| 2026-05-07 16:59 | 59.67959 | 12.71614 | 2574 ft | 84 kts | 116° |
| 2026-05-07 16:59 | 59.67668 | 12.72606 | 2799 ft | 83 kts | 127° |
| 2026-05-07 16:59 | 59.67311 | 12.73500 | 2981 ft | 86 kts | 129° |
| 2026-05-07 16:59 | 59.66935 | 12.74422 | 3202 ft | 84 kts | 127° |
| 2026-05-07 17:00 | 59.66583 | 12.75373 | 3388 ft | 86 kts | 125° |
| 2026-05-07 17:00 | 59.66254 | 12.76363 | 3584 ft | 87 kts | 123° |
| 2026-05-07 17:00 | 59.65916 | 12.77364 | 3780 ft | 87 kts | 124° |
| 2026-05-07 17:00 | 59.65588 | 12.78396 | 3977 ft | 89 kts | 121° |
| 2026-05-07 17:01 | 59.65283 | 12.79444 | 4178 ft | 87 kts | 119° |
| 2026-05-07 17:01 | 59.64983 | 12.80489 | 4351 ft | 90 kts | 121° |
| 2026-05-07 17:01 | 59.64681 | 12.81551 | 4552 ft | 89 kts | 119° |
| 2026-05-07 17:01 | 59.64402 | 12.82644 | 4730 ft | 89 kts | 116° |
| 2026-05-07 17:02 | 59.64146 | 12.83772 | 4908 ft | 91 kts | 115° |
| 2026-05-07 17:02 | 59.63896 | 12.84910 | 5085 ft | 90 kts | 115° |
| 2026-05-07 17:02 | 59.63637 | 12.86035 | 5255 ft | 90 kts | 116° |
| 2026-05-07 17:02 | 59.63373 | 12.87176 | 5424 ft | 91 kts | 115° |
| 2026-05-07 17:03 | 59.63125 | 12.88311 | 5588 ft | 91 kts | 114° |
| 2026-05-07 17:03 | 59.62867 | 12.89457 | 5761 ft | 91 kts | 116° |
| 2026-05-07 17:03 | 59.62594 | 12.90595 | 5914 ft | 93 kts | 116° |
| 2026-05-07 17:03 | 59.62336 | 12.91722 | 6102 ft | 91 kts | 114° |
| 2026-05-07 17:04 | 59.62090 | 12.92905 | 6246 ft | 93 kts | 113° |
| 2026-05-07 17:04 | 59.61873 | 12.94107 | 6407 ft | 94 kts | 111° |
| 2026-05-07 17:04 | 59.61662 | 12.95309 | 6567 ft | 94 kts | 110° |
| 2026-05-07 17:04 | 59.61467 | 12.96545 | 6710 ft | 93 kts | 108° |
| 2026-05-07 17:05 | 59.61282 | 12.97776 | 6831 ft | 95 kts | 107° |
| 2026-05-07 17:05 | 59.61091 | 12.99019 | 6979 ft | 94 kts | 108° |
| 2026-05-07 17:05 | 59.60887 | 13.00261 | 7106 ft | 95 kts | 110° |
| 2026-05-07 17:05 | 59.60677 | 13.01502 | 7245 ft | 96 kts | 109° |
| 2026-05-07 17:06 | 59.60473 | 13.02758 | 7375 ft | 96 kts | 108° |
| 2026-05-07 17:06 | 59.60285 | 13.04034 | 7490 ft | 98 kts | 107° |
| 2026-05-07 17:06 | 59.60096 | 13.05335 | 7585 ft | 102 kts | 107° |
| 2026-05-07 17:06 | 59.59887 | 13.06716 | 7614 ft | 111 kts | 109° |
| 2026-05-07 17:07 | 59.59623 | 13.08178 | 7639 ft | 116 kts | 112° |
| 2026-05-07 17:07 | 59.59334 | 13.09683 | 7629 ft | 121 kts | 112° |
| 2026-05-07 17:07 | 59.59009 | 13.11216 | 7594 ft | 117 kts | 116° |
| 2026-05-07 17:07 | 59.58650 | 13.12630 | 7570 ft | 115 kts | 119° |
| 2026-05-07 17:08 | 59.58271 | 13.14006 | 7538 ft | 112 kts | 120° |
| 2026-05-07 17:08 | 59.57888 | 13.15322 | 7546 ft | 108 kts | 123° |
| 2026-05-07 17:08 | 59.57471 | 13.16528 | 7607 ft | 104 kts | 127° |
| 2026-05-07 17:08 | 59.57212 | 13.17863 | 7609 ft | 106 kts | 105° |
| 2026-05-07 17:09 | 59.57002 | 13.19266 | 7620 ft | 108 kts | 107° |
| 2026-05-07 17:09 | 59.56783 | 13.20663 | 7650 ft | 108 kts | 107° |
| 2026-05-07 17:09 | 59.56550 | 13.22080 | 7690 ft | 109 kts | 109° |
| 2026-05-07 17:09 | 59.56298 | 13.23520 | 7688 ft | 113 kts | 110° |
| 2026-05-07 17:10 | 59.56023 | 13.24995 | 7669 ft | 116 kts | 111° |
| 2026-05-07 17:10 | 59.55745 | 13.26493 | 7659 ft | 117 kts | 110° |
| 2026-05-07 17:10 | 59.55454 | 13.28008 | 7626 ft | 119 kts | 112° |
| 2026-05-07 17:10 | 59.55187 | 13.29547 | 7618 ft | 118 kts | 108° |
| 2026-05-07 17:11 | 59.54946 | 13.31090 | 7595 ft | 118 kts | 108° |
| 2026-05-07 17:11 | 59.54680 | 13.32615 | 7585 ft | 118 kts | 110° |
| 2026-05-07 17:11 | 59.54393 | 13.34135 | 7560 ft | 118 kts | 111° |
| 2026-05-07 17:11 | 59.54109 | 13.35652 | 7550 ft | 118 kts | 110° |
| 2026-05-07 17:12 | 59.53865 | 13.37172 | 7577 ft | 114 kts | 105° |
| 2026-05-07 17:12 | 59.53674 | 13.38691 | 7584 ft | 114 kts | 104° |
| 2026-05-07 17:12 | 59.53471 | 13.40198 | 7597 ft | 114 kts | 105° |
| 2026-05-07 17:12 | 59.53278 | 13.41698 | 7601 ft | 115 kts | 105° |
| 2026-05-07 17:13 | 59.53067 | 13.43216 | 7600 ft | 115 kts | 106° |
| 2026-05-07 17:13 | 59.52838 | 13.44714 | 7624 ft | 114 kts | 107° |
| 2026-05-07 17:13 | 59.52658 | 13.46243 | 7623 ft | 115 kts | 98° |
| 2026-05-07 17:13 | 59.52547 | 13.47795 | 7632 ft | 115 kts | 98° |
| 2026-05-07 17:14 | 59.52420 | 13.49355 | 7636 ft | 115 kts | 100° |
| 2026-05-07 17:14 | 59.52253 | 13.50889 | 7644 ft | 115 kts | 103° |
| 2026-05-07 17:14 | 59.52074 | 13.52425 | 7648 ft | 116 kts | 102° |
| 2026-05-07 17:14 | 59.51912 | 13.53964 | 7664 ft | 115 kts | 102° |
| 2026-05-07 17:15 | 59.51728 | 13.55514 | 7654 ft | 116 kts | 104° |
| 2026-05-07 17:15 | 59.51533 | 13.57052 | 7651 ft | 116 kts | 105° |
| 2026-05-07 17:15 | 59.51328 | 13.58571 | 7645 ft | 116 kts | 105° |
| 2026-05-07 17:15 | 59.51113 | 13.60099 | 7654 ft | 116 kts | 107° |
| 2026-05-07 17:16 | 59.50872 | 13.61618 | 7652 ft | 116 kts | 108° |
| 2026-05-07 17:16 | 59.50615 | 13.63116 | 7648 ft | 116 kts | 109° |
| 2026-05-07 17:16 | 59.50347 | 13.64616 | 7648 ft | 116 kts | 110° |
| 2026-05-07 17:16 | 59.50078 | 13.66110 | 7645 ft | 116 kts | 110° |
| 2026-05-07 17:17 | 59.49798 | 13.67600 | 7652 ft | 115 kts | 112° |
| 2026-05-07 17:17 | 59.49513 | 13.69082 | 7646 ft | 116 kts | 111° |
| 2026-05-07 17:17 | 59.49206 | 13.70552 | 7644 ft | 116 kts | 113° |
| 2026-05-07 17:17 | 59.48894 | 13.71990 | 7642 ft | 116 kts | 114° |
| 2026-05-07 17:18 | 59.48564 | 13.73457 | 7645 ft | 116 kts | 115° |
| 2026-05-07 17:18 | 59.48231 | 13.74872 | 7642 ft | 116 kts | 115° |
| 2026-05-07 17:18 | 59.47893 | 13.76313 | 7630 ft | 117 kts | 115° |
| 2026-05-07 17:18 | 59.47566 | 13.77776 | 7632 ft | 116 kts | 113° |
| 2026-05-07 17:19 | 59.47254 | 13.79230 | 7642 ft | 115 kts | 112° |
| 2026-05-07 17:19 | 59.46952 | 13.80691 | 7638 ft | 116 kts | 112° |
| 2026-05-07 17:19 | 59.46639 | 13.82142 | 7640 ft | 115 kts | 112° |
| 2026-05-07 17:19 | 59.46331 | 13.83609 | 7637 ft | 116 kts | 112° |
| 2026-05-07 17:20 | 59.46025 | 13.85074 | 7640 ft | 116 kts | 113° |
| 2026-05-07 17:20 | 59.45725 | 13.86533 | 7646 ft | 115 kts | 111° |
| 2026-05-07 17:20 | 59.45425 | 13.88005 | 7634 ft | 116 kts | 112° |
| 2026-05-07 17:20 | 59.45115 | 13.89447 | 7640 ft | 115 kts | 111° |
| 2026-05-07 17:21 | 59.44821 | 13.90912 | 7633 ft | 117 kts | 112° |
| 2026-05-07 17:21 | 59.44518 | 13.92384 | 7643 ft | 114 kts | 112° |
| 2026-05-07 17:21 | 59.44230 | 13.93838 | 7635 ft | 116 kts | 111° |
| 2026-05-07 17:21 | 59.43940 | 13.95319 | 7636 ft | 115 kts | 111° |
| 2026-05-07 17:22 | 59.43652 | 13.96791 | 7642 ft | 115 kts | 110° |
| 2026-05-07 17:22 | 59.43363 | 13.98269 | 7629 ft | 116 kts | 111° |
| 2026-05-07 17:22 | 59.43077 | 13.99746 | 7641 ft | 116 kts | 110° |
| 2026-05-07 17:22 | 59.42791 | 14.01217 | 7647 ft | 115 kts | 110° |
| 2026-05-07 17:23 | 59.42504 | 14.02700 | 7636 ft | 116 kts | 110° |
| 2026-05-07 17:23 | 59.42221 | 14.04166 | 7669 ft | 114 kts | 110° |
| 2026-05-07 17:23 | 59.41935 | 14.05641 | 7652 ft | 116 kts | 110° |
| 2026-05-07 17:23 | 59.41650 | 14.07120 | 7662 ft | 115 kts | 110° |
| 2026-05-07 17:24 | 59.41367 | 14.08593 | 7655 ft | 116 kts | 110° |
| 2026-05-07 17:24 | 59.41080 | 14.10082 | 7655 ft | 116 kts | 110° |
| 2026-05-07 17:24 | 59.40792 | 14.11558 | 7666 ft | 116 kts | 110° |
| 2026-05-07 17:24 | 59.40502 | 14.13023 | 7637 ft | 118 kts | 110° |
| 2026-05-07 17:25 | 59.40214 | 14.14497 | 7680 ft | 114 kts | 110° |
| 2026-05-07 17:25 | 59.39946 | 14.15991 | 7637 ft | 117 kts | 108° |
| 2026-05-07 17:25 | 59.39679 | 14.17485 | 7635 ft | 117 kts | 108° |
| 2026-05-07 17:25 | 59.39415 | 14.18980 | 7635 ft | 116 kts | 108° |
| 2026-05-07 17:26 | 59.39143 | 14.20500 | 7608 ft | 119 kts | 108° |
| 2026-05-07 17:26 | 59.38873 | 14.22004 | 7650 ft | 114 kts | 108° |
| 2026-05-07 17:26 | 59.38613 | 14.23498 | 7602 ft | 119 kts | 108° |
| 2026-05-07 17:26 | 59.38348 | 14.25004 | 7645 ft | 113 kts | 108° |
| 2026-05-07 17:27 | 59.38094 | 14.26481 | 7617 ft | 118 kts | 107° |
| 2026-05-07 17:27 | 59.37828 | 14.27993 | 7623 ft | 117 kts | 108° |
| 2026-05-07 17:27 | 59.37569 | 14.29481 | 7642 ft | 115 kts | 107° |
| 2026-05-07 17:27 | 59.37303 | 14.30981 | 7624 ft | 117 kts | 108° |
| 2026-05-07 17:28 | 59.37045 | 14.32475 | 7624 ft | 117 kts | 108° |
| 2026-05-07 17:28 | 59.36789 | 14.33976 | 7633 ft | 116 kts | 107° |
| 2026-05-07 17:28 | 59.36558 | 14.35432 | 7705 ft | 108 kts | 107° |
| 2026-05-07 17:28 | 59.36330 | 14.36905 | 7613 ft | 116 kts | 108° |
| 2026-05-07 17:29 | 59.36102 | 14.38410 | 7588 ft | 115 kts | 107° |
| 2026-05-07 17:29 | 59.35874 | 14.39915 | 7558 ft | 115 kts | 108° |
| 2026-05-07 17:29 | 59.35648 | 14.41419 | 7529 ft | 115 kts | 107° |
| 2026-05-07 17:29 | 59.35422 | 14.42943 | 7428 ft | 120 kts | 107° |
| 2026-05-07 17:30 | 59.35265 | 14.43977 | 7398 ft | 118 kts | 108° |
| 2026-05-07 17:30 | 59.35031 | 14.45544 | 7272 ft | 122 kts | 107° |
| 2026-05-07 17:30 | 59.34793 | 14.47124 | 7185 ft | 121 kts | 107° |
| 2026-05-07 17:30 | 59.34555 | 14.48702 | 6987 ft | 120 kts | 107° |
| 2026-05-07 17:31 | 59.34322 | 14.50246 | 6823 ft | 116 kts | 108° |
| 2026-05-07 17:31 | 59.34163 | 14.51767 | 6666 ft | 112 kts | 100° |
| 2026-05-07 17:31 | 59.34034 | 14.53261 | 6503 ft | 111 kts | 101° |
| 2026-05-07 17:31 | 59.33880 | 14.54739 | 6370 ft | 108 kts | 104° |
| 2026-05-07 17:32 | 59.33730 | 14.56164 | 6230 ft | 108 kts | 101° |
| 2026-05-07 17:32 | 59.33597 | 14.57617 | 6106 ft | 107 kts | 100° |
| 2026-05-07 17:32 | 59.33488 | 14.59026 | 6000 ft | 104 kts | 99° |
| 2026-05-07 17:32 | 59.33372 | 14.60443 | 5859 ft | 105 kts | 99° |
| 2026-05-07 17:33 | 59.33260 | 14.61833 | 5746 ft | 103 kts | 99° |
| 2026-05-07 17:33 | 59.33140 | 14.63226 | 5625 ft | 104 kts | 100° |
| 2026-05-07 17:33 | 59.33014 | 14.64632 | 5506 ft | 104 kts | 99° |
| 2026-05-07 17:33 | 59.32896 | 14.66046 | 5363 ft | 106 kts | 99° |
| 2026-05-07 17:34 | 59.32783 | 14.67471 | 5268 ft | 106 kts | 97° |
| 2026-05-07 17:34 | 59.32721 | 14.68881 | 5179 ft | 103 kts | 92° |
| 2026-05-07 17:34 | 59.32731 | 14.70304 | 5058 ft | 104 kts | 89° |
| 2026-05-07 17:34 | 59.32733 | 14.71719 | 4949 ft | 104 kts | 90° |
| 2026-05-07 17:35 | 59.32722 | 14.73133 | 4823 ft | 107 kts | 91° |
| 2026-05-07 17:35 | 59.32712 | 14.74602 | 4689 ft | 107 kts | 91° |
| 2026-05-07 17:35 | 59.32691 | 14.76051 | 4558 ft | 108 kts | 92° |
| 2026-05-07 17:35 | 59.32637 | 14.77528 | 4414 ft | 109 kts | 94° |
| 2026-05-07 17:36 | 59.32562 | 14.79044 | 4201 ft | 114 kts | 96° |
| 2026-05-07 17:36 | 59.32448 | 14.80573 | 4013 ft | 113 kts | 97° |
| 2026-05-07 17:36 | 59.32304 | 14.82091 | 3796 ft | 115 kts | 100° |
| 2026-05-07 17:36 | 59.32108 | 14.83635 | 3578 ft | 116 kts | 103° |
| 2026-05-07 17:37 | 59.31905 | 14.85162 | 3404 ft | 115 kts | 104° |
| 2026-05-07 17:37 | 59.31678 | 14.86653 | 3248 ft | 114 kts | 106° |
| 2026-05-07 17:37 | 59.31427 | 14.88154 | 3036 ft | 118 kts | 107° |
| 2026-05-07 17:37 | 59.31122 | 14.89662 | 2725 ft | 120 kts | 112° |
| 2026-05-07 17:38 | 59.30771 | 14.91165 | 2401 ft | 122 kts | 113° |
| 2026-05-07 17:38 | 59.30484 | 14.92517 | 2153 ft | 122 kts | 113° |
| 2026-05-07 17:38 | 59.30149 | 14.93977 | 1970 ft | 116 kts | 114° |
| 2026-05-07 17:38 | 59.29789 | 14.95366 | 1843 ft | 113 kts | 116° |
| 2026-05-07 17:39 | 59.29440 | 14.96720 | 1719 ft | 107 kts | 117° |
| 2026-05-07 17:39 | 59.29106 | 14.98021 | 1523 ft | 109 kts | 119° |
| 2026-05-07 17:39 | 59.28700 | 14.99248 | 1350 ft | 105 kts | 124° |
| 2026-05-07 17:39 | 59.28312 | 15.00380 | 1202 ft | 98 kts | 124° |
| 2026-05-07 17:40 | 59.27928 | 15.01438 | 1040 ft | 91 kts | 128° |
| 2026-05-07 17:40 | 59.27560 | 15.02385 | 913 ft | 86 kts | 131° |
| 2026-05-07 17:40 | 59.27189 | 15.03297 | 806 ft | 83 kts | 131° |
| 2026-05-07 17:40 | 59.26833 | 15.04123 | 712 ft | 76 kts | 135° |
| 2026-05-07 17:41 | 59.26484 | 15.04850 | 635 ft | 73 kts | 146° |
| 2026-05-07 17:41 | 59.26044 | 15.05253 | 584 ft | 69 kts | 171° |
| 2026-05-07 17:41 | 59.25565 | 15.05164 | 561 ft | 70 kts | 200° |
| 2026-05-07 17:41 | 59.25099 | 15.04943 | 510 ft | 69 kts | 195° |
| 2026-05-07 17:42 | 59.24642 | 15.04742 | 430 ft | 65 kts | 193° |
| 2026-05-07 17:42 | 59.24205 | 15.04552 | 346 ft | 64 kts | 194° |
| 2026-05-07 17:42 | 59.23774 | 15.04367 | 277 ft | 64 kts | 194° |
| 2026-05-07 17:42 | 59.23333 | 15.04188 | 191 ft | 64 kts | 194° |
| 2026-05-07 17:43 | 59.23003 | 15.04047 | 178 ft | 34 kts | 190° |
| 2026-05-07 17:43 | 59.22845 | 15.03987 | 175 ft | 14 kts | 192° |
| 2026-05-07 17:43 | 59.22791 | 15.04042 | 176 ft | 10 kts | 109° |
| 2026-05-07 17:43 | 59.22774 | 15.04196 | 178 ft | 14 kts | 102° |
| 2026-05-07 17:44 | 59.22762 | 15.04310 | 178 ft | 2 kts | 102° |
| 2026-05-07 17:44 | 59.22759 | 15.04338 | 178 ft | 3 kts | 103° |
| 2026-05-07 17:44 | 59.22771 | 15.04412 | 178 ft | 10 kts | 45° |
| 2026-05-07 17:44 | 59.22837 | 15.04486 | 178 ft | 10 kts | 38° |
| 2026-05-07 17:45 | 59.22883 | 15.04539 | 178 ft | 7 kts | 101° |
| 2026-05-07 17:45 | 59.22875 | 15.04631 | 178 ft | 5 kts | 74° |
| 2026-05-07 17:45 | 59.22883 | 15.04652 | 178 ft | 0 kts | 88° |